Time;durP1;ratioP1;P1;durP2;ratioP2;P2;SDS_P1;SDS_P2;PMS_P1;PMS_P2;Temp;Humidity;BMP_temperature;BMP_pressure;BME280_temperature;BME280_humidity;BME280_pressure;Samples;Min_cycle;Max_cycle;Signal;HPM_P1;HPM_P2
2022/09/28 00:00:01;;;;;;;19.45;9.60;;;;;;;13.88;88.67;99140.22;1759407;80;21161;-56
2022/09/28 00:03:08;;;;;;;27.93;10.93;;;;;;;13.87;88.68;99145.95;1768308;81;21199;-56
2022/09/28 00:06:15;;;;;;;25.60;12.88;;;;;;;13.84;88.75;99143.66;1760393;80;21267;-57
2022/09/28 00:09:23;;;;;;;37.78;13.08;;;;;;;13.83;88.82;99137.30;1751520;80;21260;-56
2022/09/28 00:12:30;;;;;;;26.20;13.50;;;;;;;13.82;88.90;99134.78;1763814;80;21228;-58
2022/09/28 00:15:38;;;;;;;28.83;14.53;;;;;;;13.83;88.94;99136.45;1765509;80;21208;-56
2022/09/28 00:18:44;;;;;;;27.50;13.50;;;;;;;13.80;88.92;99136.91;1750756;78;21813;-57
2022/09/28 00:21:51;;;;;;;25.45;13.43;;;;;;;13.76;88.95;99144.80;1752639;80;21358;-55
2022/09/28 00:24:58;;;;;;;23.52;13.80;;;;;;;13.73;88.93;99144.40;1747525;80;21260;-58
2022/09/28 00:28:05;;;;;;;21.62;13.62;;;;;;;13.69;88.96;99148.13;1756128;79;21201;-56
2022/09/28 00:31:10;;;;;;;21.80;12.88;;;;;;;13.68;89.02;99145.61;1752754;79;22222;-56
2022/09/28 00:34:16;;;;;;;20.90;12.82;;;;;;;13.64;89.02;99155.39;1756321;79;21180;-57
2022/09/28 00:37:21;;;;;;;24.00;13.65;;;;;;;13.62;89.06;99143.20;1738620;80;21193;-56
2022/09/28 00:40:28;;;;;;;23.42;15.43;;;;;;;13.59;89.10;99138.72;1757475;79;21213;-56
2022/09/28 00:43:35;;;;;;;19.37;13.28;;;;;;;13.57;89.15;99151.31;1743511;81;21187;-55
2022/09/28 00:46:41;;;;;;;25.50;14.78;;;;;;;13.58;89.24;99149.39;1755789;79;21395;-56
2022/09/28 00:49:58;;;;;;;23.98;14.68;;;;;;;13.54;89.19;99149.02;1761930;80;21263;-56
2022/09/28 00:53:30;;;;;;;22.42;14.33;;;;;;;13.54;89.25;99150.39;1757312;78;21188;-55
2022/09/28 00:56:37;;;;;;;27.77;14.35;;;;;;;13.52;89.19;99152.52;1762219;80;21231;-56
2022/09/28 00:59:43;;;;;;;24.70;14.33;;;;;;;13.47;89.25;99147.70;1747105;79;22116;-56
2022/09/28 01:02:49;;;;;;;17.45;13.38;;;;;;;13.45;89.26;99155.84;1759618;80;21181;-55
2022/09/28 01:05:57;;;;;;;17.45;13.15;;;;;;;13.44;89.28;99163.80;1753780;80;21224;-54
2022/09/28 01:09:04;;;;;;;18.70;14.10;;;;;;;13.40;89.29;99166.14;1760473;80;21197;-57
2022/09/28 01:12:12;;;;;;;19.42;14.00;;;;;;;13.40;89.36;99173.02;1766396;80;21280;-55
2022/09/28 01:15:20;;;;;;;22.67;14.95;;;;;;;13.38;89.39;99175.14;1766894;80;21529;-57
2022/09/28 01:18:34;;;;;;;23.95;17.42;;;;;;;13.38;89.44;99176.51;1764022;80;21259;-55
2022/09/28 01:21:52;;;;;;;22.55;16.50;;;;;;;13.38;89.44;99166.06;1758350;81;21694;-57
2022/09/28 01:25:13;;;;;;;22.70;16.27;;;;;;;13.35;89.46;99165.14;1742933;80;21248;-56
2022/09/28 01:28:22;;;;;;;22.80;16.85;;;;;;;13.33;89.43;99169.45;1754225;80;21198;-56
2022/09/28 01:31:28;;;;;;;22.77;16.62;;;;;;;13.30;89.40;99173.21;1755017;79;21279;-56
2022/09/28 01:35:00;;;;;;;23.38;16.25;;;;;;;13.27;89.44;99166.23;1758906;80;21177;-57
2022/09/28 01:38:14;;;;;;;22.10;16.37;;;;;;;13.26;89.49;99151.34;1756478;80;21314;-56
2022/09/28 01:41:19;;;;;;;25.55;16.42;;;;;;;13.24;89.56;99152.94;1767448;80;21188;-57
2022/09/28 01:44:27;;;;;;;21.70;16.77;;;;;;;13.23;89.55;99151.80;1750440;80;21247;-56
2022/09/28 01:47:33;;;;;;;26.10;17.62;;;;;;;13.22;89.60;99163.30;1753282;81;21304;-55
2022/09/28 01:50:43;;;;;;;30.85;18.70;;;;;;;13.20;89.55;99161.34;1762548;80;21289;-55
2022/09/28 01:53:52;;;;;;;26.55;18.62;;;;;;;13.17;89.54;99165.91;1750853;80;21204;-55
2022/09/28 01:57:22;;;;;;;27.50;18.90;;;;;;;13.16;89.63;99162.83;1759904;78;21208;-55
2022/09/28 02:00:27;;;;;;;28.07;18.73;;;;;;;13.15;89.63;99163.91;1768135;79;21196;-55
2022/09/28 02:03:36;;;;;;;29.65;18.35;;;;;;;13.13;89.63;99161.90;1728318;80;21190;-55
2022/09/28 02:06:45;;;;;;;27.37;18.73;;;;;;;13.14;89.72;99162.75;1768754;81;21248;-54
2022/09/28 02:09:57;;;;;;;28.95;19.48;;;;;;;13.15;89.78;99168.55;1757957;80;21240;-54
2022/09/28 02:13:12;;;;;;;29.18;18.35;;;;;;;13.16;89.81;99166.12;1751387;79;22097;-55
2022/09/28 02:16:41;;;;;;;27.65;19.73;;;;;;;13.13;89.70;99166.55;1765304;79;21211;-54
2022/09/28 02:19:50;;;;;;;30.43;19.85;;;;;;;13.07;89.64;99164.16;1761391;79;21241;-56
2022/09/28 02:23:02;;;;;;;26.97;19.80;;;;;;;13.03;89.73;99167.58;1744373;79;21315;-57
2022/09/28 02:26:12;;;;;;;25.43;18.32;;;;;;;13.04;89.80;99170.11;1762269;81;21213;-54
2022/09/28 02:29:19;;;;;;;29.32;18.45;;;;;;;13.03;89.80;99168.41;1744542;80;21188;-55
2022/09/28 02:32:24;;;;;;;29.52;19.70;;;;;;;13.02;89.83;99167.25;1759176;80;21344;-56
2022/09/28 02:35:29;;;;;;;30.70;20.23;;;;;;;13.01;89.86;99162.31;1731900;81;21202;-54
2022/09/28 02:38:34;;;;;;;29.25;18.95;;;;;;;13.02;89.87;99161.76;1730344;80;21582;-56
2022/09/28 02:42:04;;;;;;;29.72;19.12;;;;;;;13.01;89.86;99159.56;1748668;80;21237;-55
2022/09/28 02:45:56;;;;;;;28.67;19.00;;;;;;;13.01;89.88;99171.07;1750103;80;21196;-55
2022/09/28 02:49:53;;;;;;;24.15;16.82;;;;;;;13.02;89.90;99172.22;1755567;80;21193;-57
2022/09/28 02:53:51;;;;;;;26.17;17.55;;;;;;;13.01;89.90;99174.67;1759609;80;21272;-56
2022/09/28 02:57:09;;;;;;;21.10;16.37;;;;;;;13.00;89.88;99183.95;1759906;80;21276;-56
2022/09/28 03:00:26;;;;;;;23.90;16.65;;;;;;;12.98;89.99;99195.69;1760424;79;21251;-55
2022/09/28 03:03:45;;;;;;;23.38;17.67;;;;;;;13.00;90.08;99196.31;1729593;81;21324;-56
2022/09/28 03:07:20;;;;;;;26.05;18.60;;;;;;;13.01;90.11;99191.16;1755980;81;21208;-56
2022/09/28 03:10:37;;;;;;;28.73;19.52;;;;;;;13.01;90.11;99188.93;1758632;79;21248;-56
2022/09/28 03:13:43;;;;;;;26.77;19.15;;;;;;;13.01;90.15;99196.66;1745382;81;21196;-54
2022/09/28 03:16:52;;;;;;;25.45;19.55;;;;;;;13.01;90.25;99206.78;1740501;81;21185;-56
2022/09/28 03:19:58;;;;;;;26.23;19.10;;;;;;;13.03;90.31;99210.98;1757431;81;21261;-56
2022/09/28 03:23:04;;;;;;;26.55;18.55;;;;;;;13.04;90.34;99211.31;1756314;81;21591;-56
2022/09/28 03:26:16;;;;;;;25.02;18.15;;;;;;;13.07;90.42;99226.50;1758810;80;21209;-55
2022/09/28 03:29:20;;;;;;;26.82;19.85;;;;;;;13.07;90.41;99224.61;1757975;79;21184;-56
2022/09/28 03:32:29;;;;;;;27.77;18.75;;;;;;;13.09;90.45;99223.02;1763954;80;21256;-56
2022/09/28 03:35:36;;;;;;;25.43;19.07;;;;;;;13.12;90.45;99229.44;1756170;80;21256;-57
2022/09/28 03:38:42;;;;;;;25.45;19.50;;;;;;;13.13;90.45;99228.36;1696211;83;21236;-57
2022/09/28 03:41:49;;;;;;;23.50;18.05;;;;;;;13.15;90.44;99220.75;1764051;80;21291;-57
2022/09/28 03:44:58;;;;;;;25.23;19.35;;;;;;;13.15;90.44;99213.36;1759548;79;21157;-57
2022/09/28 03:48:04;;;;;;;26.93;20.05;;;;;;;13.18;90.47;99223.91;1757110;80;21255;-57
2022/09/28 03:51:12;;;;;;;24.20;18.52;;;;;;;13.20;90.49;99218.19;1754267;79;21192;-57
2022/09/28 03:54:18;;;;;;;28.07;19.73;;;;;;;13.21;90.47;99216.59;1758511;79;21244;-57
2022/09/28 03:57:25;;;;;;;25.32;19.05;;;;;;;13.23;90.47;99224.61;1747464;78;21268;-55
2022/09/28 04:00:30;;;;;;;25.82;19.17;;;;;;;13.24;90.47;99223.58;1756820;80;21280;-56
2022/09/28 04:03:36;;;;;;;27.85;20.00;;;;;;;13.24;90.49;99224.95;1756836;80;21265;-56
2022/09/28 04:06:42;;;;;;;27.45;20.52;;;;;;;13.25;90.47;99221.98;1739231;80;21237;-56
2022/09/28 04:09:51;;;;;;;30.00;19.67;;;;;;;13.26;90.44;99224.17;1761222;80;21181;-56
2022/09/28 04:12:56;;;;;;;28.20;21.48;;;;;;;13.26;90.44;99220.90;1758235;80;21245;-57
2022/09/28 04:16:06;;;;;;;23.55;18.25;;;;;;;13.25;90.40;99212.36;1724061;81;21221;-56
2022/09/28 04:19:15;;;;;;;26.35;20.32;;;;;;;13.25;90.41;99217.85;1751853;80;21296;-56
2022/09/28 04:22:36;;;;;;;25.02;18.98;;;;;;;13.25;90.39;99219.75;1721224;80;21185;-56
2022/09/28 04:25:46;;;;;;;24.70;19.05;;;;;;;13.24;90.36;99224.95;1760048;80;21217;-55
2022/09/28 04:32:20;;;;;;;22.50;17.77;;;;;;;13.25;90.38;99242.59;1749976;80;21358;-57
2022/09/28 04:35:28;;;;;;;20.57;17.12;;;;;;;13.22;90.37;99248.50;1757624;80;21232;-55
2022/09/28 04:38:33;;;;;;;21.27;17.27;;;;;;;13.22;90.34;99245.75;1752814;81;21165;-55
2022/09/28 04:41:41;;;;;;;20.20;17.50;;;;;;;13.20;90.28;99245.67;1729874;81;21232;-56
2022/09/28 04:44:48;;;;;;;23.87;18.15;;;;;;;13.19;90.26;99247.56;1752649;80;21334;-55
2022/09/28 04:47:55;;;;;;;24.00;19.85;;;;;;;13.19;90.25;99253.62;1743260;81;21279;-57
2022/09/28 04:51:21;;;;;;;27.62;22.35;;;;;;;13.20;90.34;99253.39;1771338;79;21268;-54
2022/09/28 04:54:27;;;;;;;28.85;21.45;;;;;;;13.20;90.34;99261.64;1779225;79;21256;-56
2022/09/28 04:57:32;;;;;;;25.48;21.10;;;;;;;13.21;90.31;99266.06;1756201;81;21170;-55
2022/09/28 05:00:39;;;;;;;28.05;22.17;;;;;;;13.19;90.27;99259.93;1743124;79;21772;-56
2022/09/28 05:03:56;;;;;;;27.93;22.45;;;;;;;13.17;90.16;99255.21;1712888;80;21360;-59
2022/09/28 05:07:13;;;;;;;26.48;22.93;;;;;;;13.14;90.12;99246.03;1697824;82;21177;-56
2022/09/28 05:10:23;;;;;;;28.52;23.87;;;;;;;13.11;90.13;99240.95;1747422;79;21229;-55
2022/09/28 05:13:29;;;;;;;31.20;24.57;;;;;;;13.11;90.16;99239.58;1736769;80;21306;-56
2022/09/28 05:16:35;;;;;;;30.48;23.20;;;;;;;13.13;90.20;99238.84;1725750;80;21215;-55
2022/09/28 05:19:49;;;;;;;31.00;25.00;;;;;;;13.15;90.24;99246.86;1740605;79;21229;-55
2022/09/28 05:22:58;;;;;;;29.45;24.63;;;;;;;13.16;90.25;99245.81;1738421;79;22083;-56
2022/09/28 05:26:07;;;;;;;29.15;23.47;;;;;;;13.16;90.26;99252.13;1728579;79;21721;-55
2022/09/28 05:29:12;;;;;;;46.42;36.73;;;;;;;13.15;90.24;99250.45;1728898;80;21248;-55
2022/09/28 05:32:33;;;;;;;;;;;;;;;13.14;90.26;99249.30;1758499;79;21200;-55
2022/09/28 05:35:54;;;;;;;32.70;26.05;;;;;;;13.14;90.32;99251.53;1742566;80;20250;-55
2022/09/28 05:39:02;;;;;;;34.58;28.25;;;;;;;13.18;90.47;99262.37;1720252;80;21301;-56
2022/09/28 05:42:08;;;;;;;33.18;26.57;;;;;;;13.22;90.48;99271.03;1691829;79;21191;-55
2022/09/28 05:45:18;;;;;;;38.23;28.65;;;;;;;13.23;90.43;99277.69;1681742;82;21243;-55
2022/09/28 05:48:27;;;;;;;33.07;26.93;;;;;;;13.24;90.42;99271.66;1737632;79;21871;-55
2022/09/28 05:51:33;;;;;;;35.92;29.00;;;;;;;13.27;90.47;99277.54;1751504;78;21267;-54
2022/09/28 05:54:38;;;;;;;47.40;36.08;;;;;;;13.31;90.44;99279.33;1757991;79;21535;-54
2022/09/28 05:57:43;;;;;;;40.25;31.48;;;;;;;13.34;90.40;99281.11;1738135;80;21638;-54
2022/09/28 06:00:49;;;;;;;30.10;25.50;;;;;;;13.37;90.41;99291.66;1732804;81;21275;-54
2022/09/28 06:03:56;;;;;;;32.10;27.17;;;;;;;13.41;90.39;99284.64;1720856;82;21224;-55
2022/09/28 06:07:04;;;;;;;28.65;23.47;;;;;;;13.41;90.25;99290.69;1734965;81;21263;-55
2022/09/28 06:10:11;;;;;;;28.47;23.65;;;;;;;13.39;90.20;99284.05;1711944;81;21291;-56
2022/09/28 06:13:20;;;;;;;28.00;22.95;;;;;;;13.41;90.21;99290.14;1725826;79;21252;-54
2022/09/28 06:16:25;;;;;;;30.50;21.90;;;;;;;13.44;90.20;99296.59;1714617;81;21438;-55
2022/09/28 06:19:37;;;;;;;28.10;23.10;;;;;;;13.47;90.21;99287.91;1685737;83;21201;-56
2022/09/28 06:22:55;;;;;;;25.50;21.50;;;;;;;13.49;90.18;99283.00;1753228;79;21197;-56
2022/09/28 06:26:01;;;;;;;28.83;21.37;;;;;;;13.46;90.03;99277.95;1747721;78;21205;-55
2022/09/28 06:29:09;;;;;;;27.10;21.20;;;;;;;13.42;90.03;99289.09;1726726;79;21303;-55
2022/09/28 06:32:17;;;;;;;29.10;23.80;;;;;;;13.41;89.99;99287.39;1737179;80;21201;-56
2022/09/28 06:35:24;;;;;;;33.80;26.57;;;;;;;13.43;89.98;99284.42;1771244;80;21221;-54
2022/09/28 06:38:32;;;;;;;28.98;23.73;;;;;;;13.44;89.97;99277.36;1720226;79;21272;-54
2022/09/28 06:41:39;;;;;;;30.60;24.02;;;;;;;13.47;90.06;99286.53;1753355;78;21213;-54
2022/09/28 06:44:45;;;;;;;29.10;23.95;;;;;;;13.51;90.08;99296.02;1752732;79;21252;-55
2022/09/28 06:48:05;;;;;;;31.55;25.50;;;;;;;13.54;90.10;99301.06;1753336;79;21244;-55
2022/09/28 06:51:16;;;;;;;31.50;22.93;;;;;;;13.58;90.07;99308.34;1697616;82;21326;-55
2022/09/28 06:54:24;;;;;;;29.95;22.60;;;;;;;13.57;89.98;99304.45;1694886;82;21229;-54
2022/09/28 06:57:35;;;;;;;31.68;23.73;;;;;;;13.57;89.98;99290.69;1697338;82;21189;-55
2022/09/28 07:00:53;;;;;;;27.02;22.02;;;;;;;13.60;90.04;99298.50;1686480;82;22204;-55
2022/09/28 07:04:13;;;;;;;26.95;22.77;;;;;;;13.63;89.98;99292.55;1687962;81;21338;-56
2022/09/28 07:07:43;;;;;;;36.68;27.85;;;;;;;13.63;89.86;99295.30;1673540;84;21228;-55
2022/09/28 07:11:07;;;;;;;33.90;24.95;;;;;;;13.64;89.87;99296.45;1671674;83;21255;-55
2022/09/28 07:14:20;;;;;;;31.23;24.20;;;;;;;13.64;89.88;99302.51;1621063;81;21801;-56
2022/09/28 07:17:27;;;;;;;32.50;25.62;;;;;;;13.64;89.88;99305.26;1723791;81;21756;-55
2022/09/28 07:20:37;;;;;;;37.15;25.48;;;;;;;13.64;89.89;99300.58;1703717;81;21247;-54
2022/09/28 07:23:47;;;;;;;28.17;21.27;;;;;;;13.65;89.91;99308.31;1733510;80;21196;-55
2022/09/28 07:27:04;;;;;;;27.50;19.98;;;;;;;13.64;89.86;99299.20;1754564;78;22114;-55
2022/09/28 07:30:21;;;;;;;29.18;23.00;;;;;;;13.63;89.79;99307.68;1734093;80;21271;-56
2022/09/28 07:33:33;;;;;;;27.27;21.05;;;;;;;13.63;89.72;99300.80;1751736;78;21165;-56
2022/09/28 07:36:41;;;;;;;26.45;20.97;;;;;;;13.65;89.74;99293.18;1738177;79;21237;-56
2022/09/28 07:43:22;;;;;;;29.30;21.68;;;;;;;13.62;89.67;99278.50;1735297;80;21232;-56
2022/09/28 07:46:40;;;;;;;27.37;20.83;;;;;;;13.60;89.68;99282.00;1731753;81;21228;-55
2022/09/28 07:50:06;;;;;;;31.12;20.62;;;;;;;13.60;89.67;99286.98;1738962;80;21231;-56
2022/09/28 07:53:19;;;;;;;26.47;19.40;;;;;;;13.61;89.78;99290.55;1755547;81;21764;-55
2022/09/28 07:56:41;;;;;;;25.57;18.37;;;;;;;13.62;89.78;99289.50;1734565;82;21412;-54
2022/09/28 07:59:55;;;;;;;27.52;18.62;;;;;;;13.63;89.72;99280.17;1753378;81;21173;-54
2022/09/28 08:03:09;;;;;;;26.65;19.07;;;;;;;13.69;89.78;99283.41;1754095;81;21757;-54
2022/09/28 08:06:18;;;;;;;24.18;17.05;;;;;;;13.74;89.72;99281.69;1751133;80;21215;-55
2022/09/28 08:09:27;;;;;;;26.55;19.77;;;;;;;13.77;89.70;99290.87;1737190;81;21302;-54
2022/09/28 08:12:49;;;;;;;28.38;20.80;;;;;;;13.80;89.63;99299.19;1641555;85;21361;-54
2022/09/28 08:16:13;;;;;;;27.67;20.12;;;;;;;13.91;89.64;99299.84;1869219;75;22764;-55
2022/09/28 08:19:23;;;;;;;33.02;25.55;;;;;;;13.87;89.57;99302.23;1768912;79;21251;-55
2022/09/28 08:22:33;;;;;;;28.95;20.82;;;;;;;13.88;89.58;99301.67;1743114;81;21252;-55
2022/09/28 08:25:39;;;;;;;28.57;20.15;;;;;;;13.89;89.48;99302.00;1772025;79;21189;-55
2022/09/28 08:28:46;;;;;;;29.32;21.05;;;;;;;13.90;89.52;99299.03;1805579;79;21395;-55
2022/09/28 08:32:11;;;;;;;26.35;19.35;;;;;;;13.91;89.46;99302.59;1808185;79;21686;-55
2022/09/28 08:35:21;;;;;;;28.57;20.43;;;;;;;13.89;89.45;99293.20;1750384;79;21558;-55
2022/09/28 08:38:47;;;;;;;32.50;20.20;;;;;;;13.90;89.45;99299.55;1783104;79;21401;-55
2022/09/28 08:42:07;;;;;;;26.85;19.95;;;;;;;13.90;89.50;99299.03;1779841;80;21330;-56
2022/09/28 08:45:35;;;;;;;25.10;19.27;;;;;;;13.96;89.52;99306.91;1779599;80;21224;-56
2022/09/28 08:49:03;;;;;;;26.00;18.30;;;;;;;14.01;89.49;99307.08;1771197;80;21205;-53
2022/09/28 08:52:25;;;;;;;25.75;19.70;;;;;;;14.07;89.45;99309.78;1790711;78;21538;-55
2022/09/28 08:55:44;;;;;;;23.50;18.07;;;;;;;14.16;89.56;99311.73;1760521;81;21601;-56
2022/09/28 08:58:51;;;;;;;24.77;17.87;;;;;;;14.24;89.57;99310.92;1719092;82;21207;-55
2022/09/28 09:02:08;;;;;;;24.87;18.32;;;;;;;14.34;89.56;99311.80;1722771;81;21217;-53
2022/09/28 09:05:18;;;;;;;22.25;17.98;;;;;;;14.37;89.24;99314.09;1750824;80;21236;-54
2022/09/28 09:08:48;;;;;;;27.60;18.95;;;;;;;14.37;89.09;99314.09;1779568;79;21244;-54
2022/09/28 09:12:15;;;;;;;22.77;16.67;;;;;;;14.41;89.06;99312.03;1766044;79;21742;-55
2022/09/28 09:15:35;;;;;;;30.88;21.93;;;;;;;14.48;89.05;99316.95;1706102;80;21200;-55
2022/09/28 09:18:56;;;;;;;25.45;19.55;;;;;;;14.49;88.84;99316.43;1758161;81;21264;-55
2022/09/28 09:22:24;;;;;;;;;;;;;;;14.52;88.94;99318.20;1734017;83;21709;-55
2022/09/28 09:25:34;;;;;;;22.00;17.05;;;;;;;14.57;89.02;99318.89;1734121;80;20392;-54
2022/09/28 09:29:11;;;;;;;21.30;16.12;;;;;;;14.61;89.07;99326.99;1740590;79;21190;-52
2022/09/28 09:32:37;;;;;;;22.05;17.12;;;;;;;14.67;89.16;99330.21;1744189;81;21194;-54
2022/09/28 09:35:59;;;;;;;22.77;16.12;;;;;;;14.71;89.10;99332.28;1735288;81;21213;-53
2022/09/28 09:39:51;;;;;;;22.13;16.65;;;;;;;14.74;89.05;99321.36;1747295;81;21224;-53
2022/09/28 09:43:57;;;;;;;19.32;15.55;;;;;;;14.80;89.03;99321.81;1752854;81;21774;-53
2022/09/28 09:47:32;;;;;;;21.60;16.48;;;;;;;14.84;88.95;99315.61;1740175;81;21335;-54
2022/09/28 09:50:54;;;;;;;22.13;16.73;;;;;;;14.87;88.85;99322.59;1766923;80;21690;-55
2022/09/28 09:54:10;;;;;;;24.00;17.95;;;;;;;14.87;88.69;99324.80;1770592;79;21699;-55
2022/09/28 09:57:25;;;;;;;21.87;17.45;;;;;;;14.87;88.62;99315.15;1766776;80;21316;-54
2022/09/28 10:00:39;;;;;;;22.42;15.85;;;;;;;14.92;88.54;99317.25;1767924;79;21209;-55
2022/09/28 10:03:51;;;;;;;22.10;17.55;;;;;;;14.94;88.48;99310.41;1765202;79;21236;-53
2022/09/28 10:07:08;;;;;;;21.62;16.97;;;;;;;14.99;88.54;99304.21;1738445;80;21398;-55
2022/09/28 10:10:19;;;;;;;;;;;;;;;15.04;88.56;99305.74;1769984;79;21225;-55
2022/09/28 10:13:28;;;;;;;23.00;17.65;;;;;;;15.09;88.46;99298.16;1751361;81;20243;-56
2022/09/28 10:16:35;;;;;;;25.77;18.87;;;;;;;15.11;88.43;99292.70;1761707;79;21156;-56
2022/09/28 10:19:44;;;;;;;26.27;19.15;;;;;;;15.14;88.28;99290.89;1755746;80;21223;-55
2022/09/28 10:23:05;;;;;;;24.02;18.40;;;;;;;15.14;88.20;99285.91;1779575;79;21339;-56
2022/09/28 10:26:23;;;;;;;24.50;18.95;;;;;;;15.15;88.05;99288.95;1767181;80;21343;-57
2022/09/28 10:29:32;;;;;;;24.65;19.92;;;;;;;15.17;88.01;99285.44;1767720;79;21229;-57
2022/09/28 10:32:53;;;;;;;22.70;18.17;;;;;;;15.23;88.12;99295.00;1767667;80;22161;-57
2022/09/28 10:35:59;;;;;;;23.18;18.48;;;;;;;15.28;88.13;99291.02;1766727;80;21259;-56
2022/09/28 10:39:05;;;;;;;27.60;20.48;;;;;;;15.35;88.16;99306.10;1767172;79;21248;-57
2022/09/28 10:42:18;;;;;;;26.77;19.87;;;;;;;15.37;88.11;99314.43;1755150;80;21185;-55
2022/09/28 10:45:30;;;;;;;28.27;20.72;;;;;;;15.36;87.91;99320.18;1732601;82;21200;-56
2022/09/28 10:48:36;;;;;;;26.77;20.08;;;;;;;15.34;87.76;99319.03;1704783;83;21231;-56
2022/09/28 10:51:57;;;;;;;23.80;19.17;;;;;;;15.35;87.79;99319.89;1748097;81;21196;-60
2022/09/28 10:55:04;;;;;;;25.45;19.52;;;;;;;15.38;87.92;99321.66;1770880;79;21275;-59
2022/09/28 10:58:36;;;;;;;24.23;20.08;;;;;;;15.42;88.04;99313.77;1745288;81;21221;-60
2022/09/28 11:01:50;;;;;;;26.75;19.12;;;;;;;15.42;88.08;99307.72;1720411;82;22005;-59
2022/09/28 11:05:03;;;;;;;29.95;21.05;;;;;;;15.46;88.07;99313.62;1728876;81;21248;-60
2022/09/28 11:08:12;;;;;;;26.60;19.37;;;;;;;15.46;88.00;99310.30;1729172;83;21527;-60
2022/09/28 11:11:29;;;;;;;25.52;19.62;;;;;;;15.46;87.87;99315.81;1726655;82;21442;-60
2022/09/28 11:14:51;;;;;;;25.65;19.25;;;;;;;15.47;87.77;99313.91;1776196;79;21742;-59
2022/09/28 11:17:54;;;;;;;26.60;19.62;;;;;;;15.47;87.63;99318.90;1799403;78;21551;-59
2022/09/28 11:21:00;;;;;;;23.25;18.67;;;;;;;15.46;87.61;99327.41;1795198;79;21244;-59
2022/09/28 11:24:31;;;;;;;25.37;20.08;;;;;;;15.45;87.64;99323.80;1707595;81;21221;-59
2022/09/28 11:27:37;;;;;;;25.35;18.75;;;;;;;15.45;87.69;99323.80;1734989;82;21699;-59
2022/09/28 11:31:01;;;;;;;25.15;19.90;;;;;;;15.46;87.75;99318.58;1725514;82;21200;-59
2022/09/28 11:34:14;;;;;;;24.75;19.40;;;;;;;15.47;87.84;99318.90;1732675;81;21217;-60
2022/09/28 11:37:37;;;;;;;24.95;18.67;;;;;;;15.49;87.98;99321.42;1737011;81;21256;-60
2022/09/28 11:41:09;;;;;;;25.27;18.63;;;;;;;15.51;88.03;99321.48;1770932;80;21244;-60
2022/09/28 11:44:43;;;;;;;26.07;19.17;;;;;;;15.53;88.01;99317.95;1788779;78;21244;-61
2022/09/28 11:48:14;;;;;;;24.57;18.57;;;;;;;15.55;88.04;99324.09;1787597;79;21196;-60
2022/09/28 11:51:38;;;;;;;24.02;18.45;;;;;;;15.58;88.04;99329.14;1786765;80;21254;-60
2022/09/28 11:54:52;;;;;;;24.67;18.32;;;;;;;15.57;87.96;99330.75;1809206;77;21225;-60
2022/09/28 11:58:10;;;;;;;23.52;17.40;;;;;;;15.52;87.74;99325.94;1799982;78;21197;-60
2022/09/28 12:01:34;;;;;;;26.62;19.55;;;;;;;15.45;87.59;99326.55;1760877;81;22018;-59
2022/09/28 12:05:16;;;;;;;21.02;17.70;;;;;;;15.40;87.59;99332.45;1779130;79;21383;-59
2022/09/28 12:08:36;;;;;;;24.90;18.20;;;;;;;15.40;87.84;99327.78;1763776;79;21235;-60
2022/09/28 12:11:49;;;;;;;22.42;18.67;;;;;;;15.42;88.04;99328.41;1770563;79;21181;-62
2022/09/28 12:15:25;;;;;;;26.10;19.75;;;;;;;15.44;88.15;99333.69;1735871;82;21339;-60
2022/09/28 12:18:59;;;;;;;25.23;19.73;;;;;;;15.44;88.05;99327.64;1744714;81;21184;-60
2022/09/28 12:22:24;;;;;;;35.25;26.57;;;;;;;15.43;87.90;99327.31;1773453;80;21185;-60
2022/09/28 12:25:31;;;;;;;22.98;18.17;;;;;;;15.41;87.79;99328.11;1718989;82;21244;-57
2022/09/28 12:28:50;;;;;;;24.67;20.23;;;;;;;15.39;87.80;99337.14;1784184;79;21216;-57
2022/09/28 12:32:06;;;;;;;26.02;19.52;;;;;;;15.39;87.81;99337.67;1767859;80;21180;-56
2022/09/28 12:35:22;;;;;;;24.47;18.95;;;;;;;15.37;87.83;99329.59;1741324;82;21284;-57
2022/09/28 12:38:33;;;;;;;24.75;19.00;;;;;;;15.38;87.88;99334.06;1742261;79;21719;-60
2022/09/28 12:41:56;;;;;;;24.82;19.27;;;;;;;15.36;87.83;99323.80;1775755;80;21197;-61
2022/09/28 12:45:26;;;;;;;24.85;18.90;;;;;;;15.35;87.88;99335.88;1783127;80;21240;-60
2022/09/28 12:48:59;;;;;;;22.10;17.92;;;;;;;15.31;87.77;99332.44;1767552;79;21221;-59
2022/09/28 12:52:34;;;;;;;24.72;18.98;;;;;;;15.28;87.75;99332.38;1782743;78;21764;-60
2022/09/28 12:56:02;;;;;;;25.32;19.40;;;;;;;15.26;87.80;99335.89;1767339;81;21586;-60
2022/09/28 12:59:34;;;;;;;25.45;19.62;;;;;;;15.22;87.69;99344.86;1767944;81;21279;-60
2022/09/28 13:03:15;;;;;;;25.48;19.12;;;;;;;15.19;87.81;99345.33;1761802;79;21200;-59
2022/09/28 13:06:35;;;;;;;26.02;20.05;;;;;;;15.18;87.83;99341.72;1772699;79;21173;-60
2022/09/28 13:09:48;;;;;;;24.18;18.98;;;;;;;15.17;87.87;99345.56;1767597;81;21734;-60
2022/09/28 13:13:12;;;;;;;26.70;18.62;;;;;;;15.18;87.97;99357.41;1759301;79;21761;-59
2022/09/28 13:16:34;;;;;;;22.37;17.57;;;;;;;15.19;88.08;99359.94;1760388;80;21200;-59
2022/09/28 13:20:19;;;;;;;23.35;19.92;;;;;;;15.19;88.17;99357.17;1772564;79;21233;-59
2022/09/28 13:23:34;;;;;;;26.37;18.98;;;;;;;15.19;88.31;99360.48;1768166;79;21252;-59
2022/09/28 13:26:43;;;;;;;22.52;17.62;;;;;;;15.16;88.27;99370.61;1765811;80;21707;-60
2022/09/28 13:29:50;;;;;;;23.85;19.15;;;;;;;15.11;88.27;99367.13;1767200;79;21387;-60
2022/09/28 13:32:57;;;;;;;24.18;18.52;;;;;;;15.10;88.37;99365.98;1766901;81;21229;-60
2022/09/28 13:36:03;;;;;;;23.95;19.05;;;;;;;15.07;88.38;99372.81;1769288;81;21232;-60
2022/09/28 13:39:09;;;;;;;26.35;20.45;;;;;;;15.05;88.36;99383.22;1733373;82;21216;-61
2022/09/28 13:42:18;;;;;;;24.98;18.73;;;;;;;15.04;88.42;99382.92;1730837;82;21264;-61
2022/09/28 13:45:31;;;;;;;29.52;21.37;;;;;;;15.02;88.40;99378.16;1761553;81;21208;-60
2022/09/28 13:48:52;;;;;;;24.10;18.57;;;;;;;15.01;88.37;99375.11;1737413;81;21590;-61
2022/09/28 13:52:06;;;;;;;25.92;19.05;;;;;;;14.98;88.33;99377.77;1712448;82;21205;-59
2022/09/28 13:55:33;;;;;;;24.55;18.90;;;;;;;14.97;88.35;99387.64;1779904;79;21725;-60
2022/09/28 13:59:05;;;;;;;25.72;19.25;;;;;;;14.96;88.39;99391.48;1779608;80;21250;-60
2022/09/28 14:02:28;;;;;;;23.50;17.77;;;;;;;14.94;88.45;99395.00;1778151;80;21235;-59
2022/09/28 14:05:48;;;;;;;25.48;17.92;;;;;;;14.95;88.65;99402.21;1777435;80;21566;-60
2022/09/28 14:09:23;;;;;;;25.68;19.25;;;;;;;14.91;88.73;99399.59;1743187;81;21224;-60
2022/09/28 14:12:43;;;;;;;23.52;18.27;;;;;;;14.89;88.70;99409.46;1744669;80;21305;-59
2022/09/28 14:15:51;;;;;;;28.15;21.90;;;;;;;14.87;88.72;99415.73;1721408;82;21237;-59
2022/09/28 14:19:06;;;;;;;27.07;18.92;;;;;;;14.87;88.83;99421.23;1705661;83;21651;-59
2022/09/28 14:22:18;;;;;;;26.33;20.00;;;;;;;14.86;88.92;99427.83;1702079;84;21229;-60
2022/09/28 14:25:31;;;;;;;23.75;18.45;;;;;;;14.84;88.86;99425.01;1759738;81;21193;-59
2022/09/28 14:28:48;;;;;;;24.70;18.95;;;;;;;14.82;88.94;99430.74;1737251;82;21217;-59
2022/09/28 14:31:54;;;;;;;25.35;19.25;;;;;;;14.81;88.98;99424.91;1744168;80;21181;-57
2022/09/28 14:35:08;;;;;;;25.68;18.15;;;;;;;14.80;89.01;99434.25;1739423;82;21208;-58
2022/09/28 14:41:51;;;;;;;25.08;18.42;;;;;;;14.79;89.11;99435.86;1739051;82;21205;-59
2022/09/28 14:45:13;;;;;;;27.00;20.90;;;;;;;14.77;89.15;99432.48;1740260;82;21770;-58
2022/09/28 14:48:31;;;;;;;27.00;21.00;;;;;;;14.76;89.03;99434.94;1724839;82;21789;-58
2022/09/28 14:51:42;;;;;;;26.90;19.35;;;;;;;14.74;88.96;99430.17;1758161;79;21165;-58
2022/09/28 14:55:01;;;;;;;24.85;19.35;;;;;;;14.71;88.84;99432.01;1764147;80;21205;-58
2022/09/28 14:58:07;;;;;;;24.82;19.90;;;;;;;14.68;88.79;99430.53;1726108;81;21232;-58
2022/09/28 15:01:19;;;;;;;25.57;20.20;;;;;;;14.65;88.80;99426.03;1803621;79;21227;-59
2022/09/28 15:04:26;;;;;;;25.95;18.75;;;;;;;14.62;88.79;99423.70;1747236;81;21204;-58